Terminal Aerodrome Forecast
Issued by NWS

Home | Current Version | Previous Version | Text Only | Print | Product List | Glossary On
Versions: 1 2 3 4 5 6 7 8 9 10 11 12 13 14 15 16 17 18 19 20 21 22 23 24 25 26 27 28 29 30 31 32 33 34
000
FTUS44 KLIX 211838 AAA
TAFASD
TAF AMD
KASD 211838Z 2119/2218 VRB04KT P6SM VCTS FEW050CB
      TEMPO 2119/2121 VRB15G30KT 3SM TSRA OVC035CB
     FM220200 VRB03KT P6SM BKN200
     FM221500 VRB04KT P6SM VCSH FEW035=

USA.gov is the U.S. government's official web portal to all federal, state and local government web resources and services.